Grundy, Virginia
Current Conditions -  °F | °C
As of 3:55 PM on Friday 31 Oct 2014 (Local Time) from KJFZ Reporting Station
Drizzle Drizzle  
Wind Chill:   Ceiling: 1500
Heat Index:   Visibility: 10mi
Dew Point:   Wind: 0mph
Humidity: 84%   Direction: NA
Pressure: 29.84"   Gusts: NA
Location:  37.28°N, 82.1°W
Report Text: KJFZ 311955Z AUTO 00000KT 10SM DZ BKN015 BKN026 OVC034 07/05 A2984 RMK AO2 T00700045
Loading
Personal Weather Stations






























Interactive Weather Map
Tropical Storm Tracking
New forecast layout! Learn more

10-Day Weather Forecast

Advertisements
Track Severe Weather on mobile